Time;durP1;ratioP1;P1;durP2;ratioP2;P2;SDS_P1;SDS_P2;PMS_P1;PMS_P2;Temp;Humidity;BMP_temperature;BMP_pressure;BME280_temperature;BME280_humidity;BME280_pressure;Samples;Min_cycle;Max_cycle;Signal;HPM_P1;HPM_P2
2022/02/12 00:01:47;;;;;;;5.07;2.85;;;;;;;-1.77;100.00;100286.94;4168630;28;20710;-72
2022/02/12 00:03:48;;;;;;;10.02;3.00;;;;;;;-1.82;100.00;100293.16;4167819;28;20032;-72
2022/02/12 00:05:48;;;;;;;5.18;2.67;;;;;;;-1.82;100.00;100306.72;4168255;28;20041;-72
2022/02/12 00:07:48;;;;;;;10.40;3.38;;;;;;;-1.75;100.00;100298.34;4167329;28;20041;-72
2022/02/12 00:09:49;;;;;;;9.57;2.95;;;;;;;-1.76;100.00;100310.28;4168539;28;20048;-72
2022/02/12 00:11:49;;;;;;;5.00;2.67;;;;;;;-1.82;100.00;100295.84;4167166;28;20059;-72
2022/02/12 00:13:50;;;;;;;7.05;2.38;;;;;;;-1.84;100.00;100292.56;4168242;28;20045;-72
2022/02/12 00:15:50;;;;;;;4.88;2.60;;;;;;;-1.93;100.00;100293.25;4168703;28;20087;-72
2022/02/12 00:17:51;;;;;;;11.38;3.00;;;;;;;-1.93;100.00;100294.06;4167394;28;20466;-72
2022/02/12 00:19:51;;;;;;;6.85;3.38;;;;;;;-1.99;100.00;100298.63;4166719;28;20032;-72
2022/02/12 00:21:52;;;;;;;7.47;3.15;;;;;;;-2.07;100.00;100299.06;4165608;28;20053;-72
2022/02/12 00:23:53;;;;;;;11.95;3.85;;;;;;;-2.14;100.00;100297.59;4167833;28;20041;-72
2022/02/12 00:25:54;;;;;;;9.15;3.40;;;;;;;-2.20;100.00;100312.16;4165513;28;20048;-72
2022/02/12 00:27:54;;;;;;;11.63;3.70;;;;;;;-2.29;100.00;100306.31;4165956;28;20128;-72
2022/02/12 00:29:55;;;;;;;12.73;3.90;;;;;;;-2.32;100.00;100301.38;4167569;28;20040;-72
2022/02/12 00:31:55;;;;;;;7.97;3.67;;;;;;;-2.30;100.00;100312.81;4167021;28;20095;-72
2022/02/12 00:33:55;;;;;;;12.32;4.20;;;;;;;-2.27;100.00;100312.31;4167507;28;20037;-72
2022/02/12 00:35:56;;;;;;;8.60;3.92;;;;;;;-2.19;100.00;100313.78;4168328;28;20045;-72
2022/02/12 00:37:56;;;;;;;11.45;3.90;;;;;;;-2.16;100.00;100314.09;4167161;28;20053;-72
2022/02/12 00:40:00;;;;;;;8.63;3.45;;;;;;;-2.21;100.00;100319.47;4170990;28;20045;-72
2022/02/12 00:42:00;;;;;;;9.13;3.85;;;;;;;-2.31;100.00;100317.44;4170987;28;20393;-72
2022/02/12 00:44:01;;;;;;;8.35;3.22;;;;;;;-2.35;100.00;100313.56;4170906;28;20037;-72
2022/02/12 00:46:01;;;;;;;6.47;3.42;;;;;;;-2.42;100.00;100304.78;4170704;28;20108;-72
2022/02/12 00:48:01;;;;;;;10.88;4.20;;;;;;;-2.41;100.00;100306.41;4170151;28;20476;-72
2022/02/12 00:50:03;;;;;;;9.30;3.40;;;;;;;-2.43;100.00;100311.25;4171350;28;20033;-72
2022/02/12 00:52:04;;;;;;;13.38;4.15;;;;;;;-2.46;100.00;100314.47;4170622;28;20460;-72
2022/02/12 00:54:05;;;;;;;9.60;3.80;;;;;;;-2.49;100.00;100317.66;4170841;28;20108;-71
2022/02/12 00:56:05;;;;;;;10.30;3.40;;;;;;;-2.53;100.00;100311.13;4170245;28;20047;-71
2022/02/12 00:58:06;;;;;;;8.88;4.30;;;;;;;-2.51;100.00;100313.56;4169930;28;20025;-71
2022/02/12 01:00:07;;;;;;;10.13;3.50;;;;;;;-2.51;100.00;100319.00;4170600;28;20029;-71
2022/02/12 01:02:07;;;;;;;10.85;3.65;;;;;;;-2.44;100.00;100327.78;4170733;28;20033;-71
2022/02/12 01:04:07;;;;;;;6.15;2.90;;;;;;;-2.48;100.00;100322.03;4170900;28;20025;-71
2022/02/12 01:06:08;;;;;;;12.43;3.60;;;;;;;-2.47;100.00;100322.88;4170429;28;20033;-72
2022/02/12 01:08:08;;;;;;;6.13;2.90;;;;;;;-2.48;100.00;100321.19;4169559;28;20025;-72
2022/02/12 01:10:09;;;;;;;10.25;3.35;;;;;;;-2.46;100.00;100336.16;4170878;28;20029;-71
2022/02/12 01:12:09;;;;;;;10.10;2.90;;;;;;;-2.47;100.00;100329.09;4170707;28;20384;-71
2022/02/12 01:14:12;;;;;;;8.43;2.65;;;;;;;-2.48;100.00;100323.91;4170258;28;20025;-71
2022/02/12 01:16:12;;;;;;;36.95;14.32;;;;;;;-2.44;100.00;100325.88;4170400;28;20111;-72
2022/02/12 01:18:13;;;;;;;14.65;6.30;;;;;;;-2.44;100.00;100316.94;4169793;28;20429;-72
2022/02/12 01:20:13;;;;;;;10.38;4.75;;;;;;;-2.41;100.00;100316.44;4170067;28;20072;-72
2022/02/12 01:22:13;;;;;;;6.35;3.80;;;;;;;-2.43;100.00;100316.69;4169469;28;20059;-72
2022/02/12 01:24:14;;;;;;;10.60;3.25;;;;;;;-2.40;100.00;100301.81;4170569;28;20485;-72
2022/02/12 01:26:15;;;;;;;9.02;3.35;;;;;;;-2.30;100.00;100308.22;4169743;28;20440;-72
2022/02/12 01:28:15;;;;;;;10.27;3.80;;;;;;;-2.23;100.00;100315.34;4169382;28;20032;-71
2022/02/12 01:30:16;;;;;;;6.50;4.05;;;;;;;-2.12;100.00;100317.97;4170438;28;20040;-72
2022/02/12 01:32:16;;;;;;;17.65;4.20;;;;;;;-2.13;100.00;100323.66;4170930;28;20052;-72
2022/02/12 01:34:16;;;;;;;8.85;2.95;;;;;;;-2.23;100.00;100304.50;4170263;28;20473;-72
2022/02/12 01:36:17;;;;;;;7.03;3.45;;;;;;;-2.25;100.00;100304.75;4169676;28;20041;-72
2022/02/12 01:38:17;;;;;;;8.00;2.92;;;;;;;-2.31;100.00;100301.16;4169816;28;20307;-72
2022/02/12 01:40:21;;;;;;;7.20;3.30;;;;;;;-2.27;100.00;100302.28;4170052;28;20041;-72
2022/02/12 01:42:21;;;;;;;6.55;3.17;;;;;;;-2.26;100.00;100303.94;4170260;28;20292;-72
2022/02/12 01:44:36;;;;;;;11.57;3.60;;;;;;;-2.27;100.00;100296.88;4170140;28;20037;-72
2022/02/12 01:46:37;;;;;;;5.80;2.97;;;;;;;-2.24;100.00;100298.25;4169266;28;20871;-72
2022/02/12 01:48:41;;;;;;;8.25;2.95;;;;;;;-2.27;100.00;100293.34;4170127;28;20032;-72
2022/02/12 01:50:42;;;;;;;7.18;2.92;;;;;;;-2.33;100.00;100289.72;4168315;28;20053;-72
2022/02/12 01:52:43;;;;;;;6.03;2.97;;;;;;;-2.43;100.00;100289.56;4170329;28;20400;-72
2022/02/12 01:54:44;;;;;;;9.75;3.40;;;;;;;-2.57;100.00;100288.28;4168323;28;20048;-71
2022/02/12 01:56:45;;;;;;;6.88;2.38;;;;;;;-2.59;100.00;100282.28;4168780;28;20041;-71
2022/02/12 01:58:46;;;;;;;5.82;2.80;;;;;;;-2.60;100.00;100284.19;4170070;28;20037;-71
2022/02/12 02:00:47;;;;;;;3.95;2.40;;;;;;;-2.62;100.00;100283.59;4168334;28;20049;-71
2022/02/12 02:02:47;;;;;;;9.45;3.00;;;;;;;-2.62;100.00;100296.34;4170219;28;20041;-71
2022/02/12 02:04:48;;;;;;;5.47;2.83;;;;;;;-2.63;100.00;100295.53;4169276;28;20044;-72
2022/02/12 02:06:49;;;;;;;5.40;3.05;;;;;;;-2.68;100.00;100292.72;4169268;28;20331;-72
2022/02/12 02:08:49;;;;;;;6.13;2.90;;;;;;;-2.68;100.00;100297.31;4169875;28;20048;-72
2022/02/12 02:10:52;;;;;;;5.28;2.80;;;;;;;-2.77;100.00;100282.53;4169283;28;20289;-72
2022/02/12 02:12:52;;;;;;;5.88;3.10;;;;;;;-2.85;100.00;100292.72;4169789;28;20504;-72
2022/02/12 02:14:52;;;;;;;4.93;2.92;;;;;;;-2.92;100.00;100292.06;4169576;28;20051;-72
2022/02/12 02:16:53;;;;;;;7.13;3.08;;;;;;;-2.89;100.00;100288.88;4168613;28;20041;-72
2022/02/12 02:18:53;;;;;;;7.15;3.15;;;;;;;-2.91;100.00;100282.03;4169107;28;20138;-72
2022/02/12 02:20:53;;;;;;;8.07;3.28;;;;;;;-2.95;100.00;100272.78;4169461;28;20045;-71
2022/02/12 02:22:56;;;;;;;4.40;2.50;;;;;;;-2.92;100.00;100275.81;4169012;28;20122;-71
2022/02/12 02:24:56;;;;;;;6.72;2.70;;;;;;;-2.83;100.00;100273.50;4168335;28;20512;-71
2022/02/12 02:27:11;;;;;;;7.18;3.63;;;;;;;-2.86;100.00;100276.72;4168538;28;20065;-71
2022/02/12 02:29:11;;;;;;;6.20;2.80;;;;;;;-2.85;100.00;100278.34;4169390;28;20507;-71
2022/02/12 02:31:11;;;;;;;4.43;2.33;;;;;;;-2.91;100.00;100265.78;4169052;28;20072;-71
2022/02/12 02:33:12;;;;;;;7.18;2.70;;;;;;;-2.98;100.00;100271.38;4169297;28;20045;-72
2022/02/12 02:35:15;;;;;;;12.55;3.35;;;;;;;-3.04;100.00;100269.66;4169350;28;20473;-72
2022/02/12 02:37:17;;;;;;;9.85;2.92;;;;;;;-2.96;100.00;100271.13;4167670;28;20131;-72
2022/02/12 02:39:17;;;;;;;9.40;3.78;;;;;;;-2.96;100.00;100266.53;4169043;28;20049;-72
2022/02/12 02:41:17;;;;;;;7.43;3.58;;;;;;;-3.05;100.00;100265.31;4168810;28;20400;-72
2022/02/12 02:43:18;;;;;;;11.52;4.95;;;;;;;-3.12;100.00;100265.47;4169401;28;20049;-72
2022/02/12 02:45:18;;;;;;;17.00;6.95;;;;;;;-3.16;100.00;100258.06;4168806;28;20040;-72
2022/02/12 02:47:40;;;;;;;15.68;6.45;;;;;;;-3.05;100.00;100261.78;4168455;28;20520;-71
2022/02/12 02:49:40;;;;;;;13.35;6.38;;;;;;;-3.04;100.00;100258.00;4167598;28;20041;-71
2022/02/12 02:56:18;;;;;;;17.08;7.38;;;;;;;-2.96;100.00;100257.59;4167102;28;20044;-72
2022/02/12 02:58:18;;;;;;;18.48;7.78;;;;;;;-3.01;100.00;100262.91;4168453;28;20033;-72
2022/02/12 03:00:19;;;;;;;14.77;7.88;;;;;;;-3.04;100.00;100266.94;4167746;28;20405;-72
2022/02/12 03:02:20;;;;;;;13.82;6.68;;;;;;;-3.08;100.00;100264.97;4168077;28;20160;-72
2022/02/12 03:04:21;;;;;;;26.15;8.57;;;;;;;-3.13;100.00;100258.41;4168378;28;20107;-72
2022/02/12 03:06:25;;;;;;;23.77;9.10;;;;;;;-3.16;100.00;100258.88;4168986;28;20040;-72
2022/02/12 03:08:25;;;;;;;17.70;7.68;;;;;;;-3.21;100.00;100256.09;4168219;28;20045;-72
2022/02/12 03:10:26;;;;;;;17.20;7.80;;;;;;;-3.14;100.00;100256.78;4168894;28;20072;-72
2022/02/12 03:12:26;;;;;;;13.10;6.93;;;;;;;-3.18;100.00;100252.91;4167991;28;20433;-71
2022/02/12 03:14:27;;;;;;;16.83;7.65;;;;;;;-3.21;100.00;100252.56;4169024;28;20436;-71
2022/02/12 03:16:27;;;;;;;14.73;6.60;;;;;;;-3.28;100.00;100247.31;4168079;28;20849;-71
2022/02/12 03:18:27;;;;;;;13.80;6.60;;;;;;;-3.34;100.00;100240.16;4168103;28;20044;-71
2022/02/12 03:20:28;;;;;;;13.75;6.10;;;;;;;-3.34;100.00;100229.34;4168947;28;20053;-71
2022/02/12 03:22:28;;;;;;;17.05;5.35;;;;;;;-3.31;100.00;100234.28;4168341;28;20179;-71
2022/02/12 03:24:28;;;;;;;17.33;6.35;;;;;;;-3.41;100.00;100226.78;4168730;28;20041;-72
2022/02/12 03:26:29;;;;;;;11.93;5.03;;;;;;;-3.57;100.00;100224.03;4168615;28;20433;-72
2022/02/12 03:28:29;;;;;;;14.35;6.00;;;;;;;-3.57;100.00;100229.44;4167969;28;20040;-72
2022/02/12 03:30:35;;;;;;;9.38;4.90;;;;;;;-3.57;100.00;100221.34;4168489;28;20048;-72
2022/02/12 03:32:35;;;;;;;9.10;4.60;;;;;;;-3.54;100.00;100221.69;4166945;28;20041;-71
2022/02/12 03:34:36;;;;;;;10.13;4.28;;;;;;;-3.64;100.00;100218.81;4167985;28;20567;-71
2022/02/12 03:36:36;;;;;;;9.68;4.45;;;;;;;-3.70;100.00;100220.56;4167793;28;20442;-71
2022/02/12 03:38:39;;;;;;;7.68;4.18;;;;;;;-3.78;100.00;100223.66;4168571;28;20130;-71
2022/02/12 03:40:44;;;;;;;12.73;4.53;;;;;;;-3.80;100.00;100228.50;4168326;28;20053;-71
2022/02/12 03:42:44;;;;;;;8.45;4.93;;;;;;;-3.81;100.00;100224.13;4167777;28;20045;-71
2022/02/12 03:44:45;;;;;;;12.93;4.95;;;;;;;-3.85;100.00;100223.00;4168987;28;20047;-71
2022/02/12 03:46:45;;;;;;;12.90;5.15;;;;;;;-3.84;100.00;100227.34;4167262;28;20496;-71
2022/02/12 03:48:45;;;;;;;6.38;3.78;;;;;;;-3.91;100.00;100223.94;4168819;28;20041;-71
2022/02/12 03:50:46;;;;;;;8.75;3.85;;;;;;;-4.02;100.00;100224.81;4168550;28;20115;-71
2022/02/12 03:52:46;;;;;;;10.10;4.88;;;;;;;-4.01;100.00;100235.38;4168131;28;20513;-71
2022/02/12 03:54:46;;;;;;;8.98;4.53;;;;;;;-3.93;100.00;100242.31;4168450;28;20053;-71
2022/02/12 03:56:47;;;;;;;10.90;4.45;;;;;;;-3.95;100.00;100233.63;4167868;28;20079;-72
2022/02/12 03:58:48;;;;;;;10.50;4.70;;;;;;;-3.95;100.00;100236.31;4168362;28;20075;-72
2022/02/12 04:00:49;;;;;;;10.63;4.68;;;;;;;-3.94;100.00;100237.13;4166194;28;20094;-72
2022/02/12 04:02:49;;;;;;;10.18;4.40;;;;;;;-3.89;100.00;100235.34;4167539;28;20045;-71
2022/02/12 04:04:50;;;;;;;7.88;4.30;;;;;;;-3.84;100.00;100229.22;4168158;28;20384;-71
2022/02/12 04:06:50;;;;;;;8.75;3.90;;;;;;;-3.77;100.00;100238.84;4165931;28;20459;-72
2022/02/12 04:08:50;;;;;;;7.05;3.92;;;;;;;-3.80;100.00;100238.50;4168293;28;20738;-72
2022/02/12 04:10:51;;;;;;;6.75;3.78;;;;;;;-3.86;100.00;100236.75;4167109;28;20084;-72
2022/02/12 04:12:52;;;;;;;6.95;3.50;;;;;;;-4.02;100.00;100244.56;4168090;28;20539;-72
2022/02/12 04:14:55;;;;;;;6.95;4.30;;;;;;;-4.06;100.00;100237.16;4170562;28;20048;-71
2022/02/12 04:16:56;;;;;;;8.63;4.10;;;;;;;-4.02;100.00;100244.56;4170666;28;20057;-71
2022/02/12 04:18:56;;;;;;;8.80;3.67;;;;;;;-4.01;100.00;100235.38;4171658;28;20085;-71
2022/02/12 04:20:56;;;;;;;5.13;3.63;;;;;;;-4.05;100.00;100245.06;4170928;28;20408;-71
2022/02/12 04:22:57;;;;;;;6.20;3.60;;;;;;;-4.06;100.00;100237.97;4171322;28;20122;-71
2022/02/12 04:24:57;;;;;;;8.38;4.00;;;;;;;-4.04;100.00;100249.38;4170840;28;20068;-71
2022/02/12 04:26:57;;;;;;;13.05;3.97;;;;;;;-4.09;100.00;100246.56;4170199;28;20033;-71
2022/02/12 04:28:58;;;;;;;6.05;3.72;;;;;;;-4.13;100.00;100237.31;4170036;28;20481;-71
2022/02/12 04:30:58;;;;;;;7.10;4.05;;;;;;;-4.11;100.00;100246.00;4171038;28;20754;-71
2022/02/12 04:32:58;;;;;;;16.70;4.20;;;;;;;-4.14;100.00;100237.53;4171171;28;20052;-71
2022/02/12 04:35:02;;;;;;;6.40;3.28;;;;;;;-4.21;100.00;100248.50;4171430;28;20124;-71
2022/02/12 04:37:03;;;;;;;7.00;3.72;;;;;;;-4.18;100.00;100245.31;4170374;28;20396;-71
2022/02/12 04:39:03;;;;;;;7.85;3.47;;;;;;;-4.24;100.00;100232.72;4171262;28;20045;-71
2022/02/12 04:41:03;;;;;;;11.00;3.80;;;;;;;-4.26;100.00;100235.69;4170974;28;20132;-71
2022/02/12 04:43:04;;;;;;;6.32;3.35;;;;;;;-4.20;100.00;100244.72;4170926;28;20504;-71
2022/02/12 04:45:05;;;;;;;6.15;3.72;;;;;;;-4.33;100.00;100237.69;4170852;28;20060;-71
2022/02/12 04:47:07;;;;;;;11.90;4.40;;;;;;;-4.35;100.00;100241.69;4170551;28;20048;-71
2022/02/12 04:49:07;;;;;;;7.85;3.67;;;;;;;-4.34;100.00;100236.03;4170521;28;20049;-71
2022/02/12 04:51:07;;;;;;;7.97;3.70;;;;;;;-4.37;100.00;100236.53;4170862;28;20094;-71
2022/02/12 04:53:08;;;;;;;8.63;3.90;;;;;;;-4.49;100.00;100232.19;4171148;28;20064;-71
2022/02/12 04:55:09;;;;;;;11.27;4.35;;;;;;;-4.57;100.00;100234.19;4170548;28;20052;-71
2022/02/12 04:57:10;;;;;;;9.23;4.07;;;;;;;-4.61;100.00;100232.22;4170071;28;20052;-71
2022/02/12 04:59:10;;;;;;;5.97;3.58;;;;;;;-4.50;100.00;100227.84;4169470;28;20048;-71
2022/02/12 05:01:19;;;;;;;6.15;3.72;;;;;;;-4.50;100.00;100217.84;4170118;28;20044;-71
2022/02/12 05:03:20;;;;;;;5.75;3.42;;;;;;;-4.64;100.00;100211.88;4169851;28;20651;-71
2022/02/12 05:05:20;;;;;;;11.38;5.55;;;;;;;-4.55;100.00;100217.72;4170494;28;20081;-71
2022/02/12 05:07:21;;;;;;;8.18;3.45;;;;;;;-4.60;100.00;100207.66;4169977;28;20084;-71
2022/02/12 05:09:21;;;;;;;10.13;4.13;;;;;;;-4.60;100.00;100220.34;4170815;28;20049;-71
2022/02/12 05:11:22;;;;;;;7.97;4.22;;;;;;;-4.54;100.00;100214.00;4170716;28;20158;-71
2022/02/12 05:13:22;;;;;;;12.32;4.90;;;;;;;-4.55;100.00;100205.09;4170161;28;20049;-71
2022/02/12 05:15:22;;;;;;;10.48;3.90;;;;;;;-4.56;100.00;100218.78;4168731;28;20075;-71
2022/02/12 05:17:23;;;;;;;11.10;4.60;;;;;;;-4.58;100.00;100204.72;4169662;28;20052;-71
2022/02/12 05:19:23;;;;;;;6.35;3.53;;;;;;;-4.67;100.00;100200.72;4169013;28;20139;-71
2022/02/12 05:21:23;;;;;;;5.30;3.45;;;;;;;-4.67;100.00;100203.44;4170049;28;20528;-71
2022/02/12 05:23:25;;;;;;;8.52;3.67;;;;;;;-4.58;100.00;100202.00;4170654;28;20069;-71
2022/02/12 05:25:25;;;;;;;7.13;3.50;;;;;;;-4.55;100.00;100215.88;4170028;28;20044;-71
2022/02/12 05:27:25;;;;;;;10.88;3.97;;;;;;;-4.58;100.00;100205.53;4169536;28;20160;-71
2022/02/12 05:29:26;;;;;;;5.47;3.58;;;;;;;-4.59;100.00;100190.38;4170517;28;20313;-71
2022/02/12 05:31:26;;;;;;;6.55;3.28;;;;;;;-4.66;100.00;100195.09;4170383;28;20041;-71
2022/02/12 05:33:26;;;;;;;7.00;4.07;;;;;;;-4.66;100.00;100199.66;4170410;28;20540;-71
2022/02/12 05:35:26;;;;;;;11.13;4.35;;;;;;;-4.66;100.00;100197.78;4170291;28;20041;-71
2022/02/12 05:37:27;;;;;;;8.00;3.78;;;;;;;-4.68;100.00;100194.50;4169598;28;20713;-71
2022/02/12 05:39:27;;;;;;;10.60;3.88;;;;;;;-4.71;100.00;100189.59;4170207;28;20057;-71
2022/02/12 05:41:28;;;;;;;12.45;4.15;;;;;;;-4.73;100.00;100193.56;4170152;28;20045;-72
2022/02/12 05:43:28;;;;;;;9.77;3.88;;;;;;;-4.80;100.00;100199.09;4169920;28;20057;-71
2022/02/12 05:45:28;;;;;;;6.00;3.42;;;;;;;-4.82;100.00;100198.50;4169850;28;20064;-71
2022/02/12 05:47:29;;;;;;;7.57;4.18;;;;;;;-4.91;100.00;100189.13;4169286;28;20629;-71
2022/02/12 05:49:29;;;;;;;8.18;4.72;;;;;;;-4.80;100.00;100188.28;4170391;28;20037;-72
2022/02/12 05:51:31;;;;;;;9.63;5.00;;;;;;;-4.85;100.00;100189.00;4170055;28;20084;-71
2022/02/12 05:53:31;;;;;;;9.27;4.70;;;;;;;-4.87;100.00;100196.53;4169967;28;20048;-72
2022/02/12 05:55:32;;;;;;;8.52;4.65;;;;;;;-4.82;100.00;100188.53;4169963;28;20409;-72
2022/02/12 05:57:32;;;;;;;9.20;4.65;;;;;;;-4.82;100.00;100190.41;4168960;28;20043;-72
2022/02/12 05:59:32;;;;;;;8.45;4.88;;;;;;;-4.85;100.00;100180.09;4169835;28;20052;-72
2022/02/12 06:01:33;;;;;;;8.55;4.68;;;;;;;-4.88;100.00;100186.78;4169519;28;20052;-72
2022/02/12 06:03:33;;;;;;;12.32;6.10;;;;;;;-4.92;100.00;100184.78;4169596;28;20699;-72
2022/02/12 06:05:34;;;;;;;11.10;6.05;;;;;;;-4.92;100.00;100190.19;4169570;28;20045;-72
2022/02/12 06:07:34;;;;;;;16.75;7.10;;;;;;;-4.87;100.00;100183.03;4167782;28;20045;-72
2022/02/12 06:09:35;;;;;;;16.42;7.28;;;;;;;-4.88;100.00;100196.72;4170060;28;20037;-72
2022/02/12 06:11:36;;;;;;;15.23;7.13;;;;;;;-4.96;100.00;100195.25;4094008;28;20582;-72
2022/02/12 06:13:36;;;;;;;14.65;7.55;;;;;;;-4.92;100.00;100196.41;4167195;28;20163;-72
2022/02/12 06:15:37;;;;;;;20.33;7.30;;;;;;;-4.91;100.00;100198.03;4168256;28;20161;-72
2022/02/12 06:17:38;;;;;;;21.02;6.65;;;;;;;-5.00;100.00;100204.03;4168932;28;20051;-72
2022/02/12 06:19:38;;;;;;;11.93;6.28;;;;;;;-5.14;100.00;100198.84;4169641;28;20064;-72
2022/02/12 06:21:38;;;;;;;11.07;5.78;;;;;;;-5.17;100.00;100196.63;4169173;28;20037;-72
2022/02/12 06:23:39;;;;;;;19.02;6.75;;;;;;;-5.26;100.00;100191.81;4169654;28;20133;-72
2022/02/12 06:25:39;;;;;;;12.00;5.97;;;;;;;-5.22;100.00;100195.66;4169099;28;20037;-72
2022/02/12 06:27:40;;;;;;;14.45;5.88;;;;;;;-5.14;100.00;100201.53;4168598;28;20045;-73
2022/02/12 06:29:40;;;;;;;18.05;6.80;;;;;;;-5.17;100.00;100191.22;4169667;28;20056;-73
2022/02/12 06:31:40;;;;;;;11.88;6.68;;;;;;;-5.15;100.00;100191.81;4168745;28;20045;-73
2022/02/12 06:33:40;;;;;;;12.70;6.00;;;;;;;-5.18;100.00;100188.75;4169426;28;20093;-72
2022/02/12 06:35:41;;;;;;;12.75;6.15;;;;;;;-5.17;100.00;100193.91;4167922;28;20248;-73
2022/02/12 06:37:41;;;;;;;10.15;5.80;;;;;;;-5.16;100.00;100173.97;4168169;28;20577;-73
2022/02/12 06:39:41;;;;;;;16.00;6.50;;;;;;;-5.19;100.00;100182.53;4168044;28;20076;-72
2022/02/12 06:41:42;;;;;;;14.73;7.10;;;;;;;-5.21;100.00;100183.84;4169396;28;20047;-73
2022/02/12 06:43:42;;;;;;;14.52;6.53;;;;;;;-5.26;100.00;100171.03;4170607;28;20493;-73
2022/02/12 06:45:43;;;;;;;13.07;6.60;;;;;;;-5.27;100.00;100180.19;4169559;28;20136;-73
2022/02/12 06:47:43;;;;;;;14.18;5.63;;;;;;;-5.22;100.00;100176.78;4169436;28;20155;-72
2022/02/12 06:49:44;;;;;;;13.27;6.40;;;;;;;-5.21;100.00;100181.16;4170338;28;20049;-72
2022/02/12 06:51:45;;;;;;;13.32;5.53;;;;;;;-5.16;100.00;100186.66;4169886;28;20304;-72
2022/02/12 06:53:45;;;;;;;11.10;5.60;;;;;;;-5.20;100.00;100189.00;4169721;28;20041;-72
2022/02/12 06:55:46;;;;;;;13.48;6.20;;;;;;;-5.28;100.00;100196.63;4169971;28;20317;-72
2022/02/12 06:57:46;;;;;;;11.60;5.10;;;;;;;-5.25;100.00;100188.88;4169000;28;20103;-73
2022/02/12 06:59:46;;;;;;;9.77;5.53;;;;;;;-5.29;100.00;100186.88;4169693;28;20041;-73
2022/02/12 07:01:47;;;;;;;12.02;5.53;;;;;;;-5.30;100.00;100191.44;4168879;28;20543;-72
2022/02/12 07:03:47;;;;;;;10.02;5.40;;;;;;;-5.23;100.00;100194.84;4170532;28;20135;-72
2022/02/12 07:05:47;;;;;;;12.10;4.90;;;;;;;-5.21;100.00;100191.94;4170841;28;20595;-73
2022/02/12 07:07:49;;;;;;;11.20;4.80;;;;;;;-5.21;100.00;100195.47;4170136;28;20476;-73
2022/02/12 07:09:50;;;;;;;12.55;5.07;;;;;;;-5.13;100.00;100197.81;4170238;28;20616;-72
2022/02/12 07:11:50;;;;;;;18.33;5.07;;;;;;;-5.16;100.00;100194.75;4170385;28;20482;-72
2022/02/12 07:13:50;;;;;;;13.52;4.82;;;;;;;-5.15;100.00;100178.31;4171219;28;20362;-72
2022/02/12 07:15:51;;;;;;;13.73;4.95;;;;;;;-5.11;100.00;100187.59;4170449;28;20048;-72
2022/02/12 07:17:51;;;;;;;12.25;5.43;;;;;;;-5.18;100.00;100188.75;4170055;28;20057;-72
2022/02/12 07:19:51;;;;;;;8.32;4.63;;;;;;;-5.06;100.00;100194.97;4169040;28;20044;-72
2022/02/12 07:21:52;;;;;;;9.40;5.10;;;;;;;-5.12;100.00;100196.75;4169861;28;20304;-72
2022/02/12 07:23:52;;;;;;;11.48;4.35;;;;;;;-5.20;100.00;100205.19;4170402;28;20047;-73
2022/02/12 07:25:52;;;;;;;12.88;6.28;;;;;;;-5.18;100.00;100203.06;4169589;28;20108;-72
2022/02/12 07:27:57;;;;;;;18.83;8.38;;;;;;;-5.15;100.00;100199.91;4168337;28;20517;-72
2022/02/12 07:29:57;;;;;;;19.77;8.00;;;;;;;-5.07;100.00;100197.91;4170655;28;20437;-72
2022/02/12 07:31:58;;;;;;;29.40;12.35;;;;;;;-4.98;100.00;100210.00;4169448;28;20114;-72
2022/02/12 07:33:58;;;;;;;27.75;11.05;;;;;;;-4.90;100.00;100202.38;4169631;28;20048;-72
2022/02/12 07:35:59;;;;;;;24.15;10.40;;;;;;;-4.89;100.00;100201.31;4169473;28;20152;-73
2022/02/12 07:38:00;;;;;;;23.00;9.68;;;;;;;-4.83;100.00;100194.16;4166972;28;20153;-73
2022/02/12 07:40:01;;;;;;;21.25;9.43;;;;;;;-4.73;100.00;100201.66;4168930;28;20047;-73
2022/02/12 07:42:01;;;;;;;19.83;8.32;;;;;;;-4.76;100.00;100194.06;4168921;28;20094;-73
2022/02/12 07:44:03;;;;;;;22.27;7.65;;;;;;;-4.78;100.00;100194.28;4169427;28;20037;-73
2022/02/12 07:46:03;;;;;;;17.00;7.82;;;;;;;-4.76;100.00;100194.88;4169467;28;20043;-73
2022/02/12 07:48:04;;;;;;;11.30;6.03;;;;;;;-4.74;100.00;100192.75;4168333;28;20033;-72
2022/02/12 07:50:09;;;;;;;10.73;5.60;;;;;;;-4.72;100.00;100192.50;4172326;28;20039;-71
2022/02/12 07:52:09;;;;;;;8.82;4.68;;;;;;;-4.79;100.00;100198.06;4172695;28;20514;-71
2022/02/12 07:54:10;;;;;;;12.50;5.53;;;;;;;-4.80;100.00;100193.69;4172650;28;20076;-71
2022/02/12 07:56:10;;;;;;;11.98;5.13;;;;;;;-4.79;100.00;100195.34;4171475;28;20041;-71
2022/02/12 07:58:11;;;;;;;8.90;4.55;;;;;;;-4.73;100.00;100197.09;4171754;28;20028;-71
2022/02/12 08:00:13;;;;;;;7.70;4.93;;;;;;;-4.73;100.00;100202.50;4173160;28;20551;-73
2022/02/12 08:02:13;;;;;;;9.57;4.70;;;;;;;-4.76;100.00;100200.28;4171937;28;20037;-72
2022/02/12 08:04:14;;;;;;;8.98;4.65;;;;;;;-4.76;100.00;100194.88;4171992;28;20397;-72
2022/02/12 08:08:33;;;;;;;13.35;6.40;;;;;;;-4.69;100.00;100209.06;4171600;28;20454;-73
2022/02/12 08:12:53;;;;;;;12.13;6.65;;;;;;;-4.69;100.00;100194.75;4172308;28;20112;-72
2022/02/12 08:14:55;;;;;;;14.02;6.72;;;;;;;-4.63;100.00;100204.63;4171575;28;20045;-72
2022/02/12 08:16:56;;;;;;;11.48;5.88;;;;;;;-4.56;100.00;100199.88;4171085;28;20485;-71
2022/02/12 08:18:56;;;;;;;10.38;6.60;;;;;;;-4.48;100.00;100193.31;4171880;28;20133;-72
2022/02/12 08:20:56;;;;;;;11.95;7.00;;;;;;;-4.39;100.00;100200.78;4170504;28;20167;-72
2022/02/12 08:22:56;;;;;;;12.57;6.60;;;;;;;-4.34;100.00;100202.78;4171174;28;20425;-72
2022/02/12 08:24:57;;;;;;;13.10;6.72;;;;;;;-4.31;100.00;100196.91;4171981;28;20045;-71
2022/02/12 08:26:57;;;;;;;12.68;7.03;;;;;;;-4.26;100.00;100189.72;4167721;28;20741;-72
2022/02/12 08:28:57;;;;;;;14.20;7.47;;;;;;;-4.27;100.00;100189.97;4172173;28;20120;-72
2022/02/12 08:30:58;;;;;;;10.93;6.50;;;;;;;-4.32;100.00;100187.97;4171737;28;20489;-72
2022/02/12 08:32:58;;;;;;;17.23;6.85;;;;;;;-4.28;100.00;100182.94;4172268;28;20060;-72
2022/02/12 08:34:59;;;;;;;11.80;6.57;;;;;;;-4.27;100.00;100187.28;4171056;28;20076;-73
2022/02/12 08:37:00;;;;;;;11.73;6.50;;;;;;;-4.24;100.00;100187.59;4170818;28;20037;-73
2022/02/12 08:39:00;;;;;;;12.80;5.85;;;;;;;-4.21;100.00;100186.31;4171929;28;20646;-72
2022/02/12 08:41:00;;;;;;;7.95;5.10;;;;;;;-4.18;100.00;100180.44;4171722;28;20167;-72
2022/02/12 08:43:01;;;;;;;11.38;5.25;;;;;;;-4.11;100.00;100183.00;4171614;28;20045;-72
2022/02/12 08:45:04;;;;;;;14.63;5.30;;;;;;;-4.03;100.00;100183.44;4171710;28;20493;-72
2022/02/12 08:47:04;;;;;;;10.55;5.80;;;;;;;-3.98;100.00;100182.69;4171268;28;20041;-72
2022/02/12 08:49:06;;;;;;;11.48;5.43;;;;;;;-3.90;100.00;100184.19;4171943;28;20159;-71
2022/02/12 08:51:08;;;;;;;9.53;4.23;;;;;;;-3.85;100.00;100187.00;4171184;28;20053;-71
2022/02/12 08:53:08;;;;;;;14.43;4.82;;;;;;;-3.79;100.00;100184.16;4171933;28;20313;-72
2022/02/12 08:55:09;;;;;;;5.70;3.80;;;;;;;-3.75;100.00;100177.19;4171553;28;20040;-72
2022/02/12 08:57:09;;;;;;;13.15;5.47;;;;;;;-3.64;100.00;100178.22;4170569;28;21336;-72
2022/02/12 08:59:10;;;;;;;12.52;5.03;;;;;;;-3.57;100.00;100183.44;4172034;28;20044;-72
2022/02/12 09:01:11;;;;;;;13.38;5.88;;;;;;;-3.52;100.00;100176.25;4170823;28;20045;-72
2022/02/12 09:03:11;;;;;;;13.13;5.78;;;;;;;-3.44;100.00;100162.31;4173075;28;20045;-72
2022/02/12 09:05:12;;;;;;;14.88;6.15;;;;;;;-3.38;100.00;100167.81;4171538;28;20320;-72
2022/02/12 09:07:13;;;;;;;8.80;4.75;;;;;;;-3.34;100.00;100169.78;4170125;28;20447;-72
2022/02/12 09:09:14;;;;;;;10.02;5.05;;;;;;;-3.29;100.00;100172.59;4173108;28;20373;-72
2022/02/12 09:11:14;;;;;;;11.73;4.95;;;;;;;-3.24;100.00;100169.94;4171883;28;20083;-72
2022/02/12 09:13:15;;;;;;;9.18;4.53;;;;;;;-3.20;100.00;100165.69;4171488;28;20194;-72
2022/02/12 09:15:15;;;;;;;10.05;5.05;;;;;;;-3.16;100.00;100161.41;4170826;28;20488;-72
2022/02/12 09:17:15;;;;;;;11.55;4.93;;;;;;;-3.11;100.00;100160.69;4170224;28;20048;-72
2022/02/12 09:19:16;;;;;;;9.77;4.07;;;;;;;-2.96;100.00;100155.50;4171284;28;20086;-72
2022/02/12 09:21:16;;;;;;;12.55;5.20;;;;;;;-2.87;100.00;100164.84;4170933;28;20080;-72